NOAA/GLERL Met Station at Michigan City, IN

Previous 5 days (top of hour only)
See slso Previous 3 Hours (2 minute increments)
Jump down to Data
Switch to [English][Metric]
Zoom: Click and drag, Pan: shift-click and drag, Unzoom: double-click, Unzoom All





Zoom: Click and drag, Pan: shift-click and drag, Unzoom: double-click, Unzoom All

Note: Speed = mean wind during 2-minute period at top of hour,
Gust = max wind during 2-minute period at top of hour,
Peak = max wind during entire hour.
• See also 5-day windrose plot

NOAA/GLERL Met Station at Michigan City, IN

Previous 5 days (top of hour only)
See slso Previous 3 Hours (2 minute increments)
Jump up to Graphs
Switch to [English][Metric]
                  Wind  Wind  Wind   Air   Dew   Rel     Sta   PAR
                   Spd   Gst   Dir  Temp    Pt   Hum    Pres uE/m2/
YYYY-MM-DD   CDT   kts   kts   deg     F     F     %   in Hg   sec
2016-05-24 12:00   1.2   4.7   188  74.5  50.9  43.1    0.00     0
2016-05-24 11:00   3.3   4.9   270  71.1  50.5  47.6    0.00     0
2016-05-24 10:00   4.7   5.2   226  72.7  48.7  42.1    0.00     0
2016-05-24 09:00   5.4   7.2   176  70.3  47.2  43.2    0.00     0
2016-05-24 08:00   7.2   8.4   183  68.5  46.7  45.1    0.00     0
2016-05-24 07:00  10.3  13.0   181  66.9  43.1  41.6    0.00     0
2016-05-24 06:00  13.0  14.4   160  66.0  40.6  38.9    0.00     0
2016-05-24 05:00  14.0  15.7   165  64.9  39.8  39.2    0.00     0
2016-05-24 04:00  14.4  17.5   158  65.5  38.7  36.8    0.00     0
2016-05-24 03:00  12.8  14.6   155  66.0  37.4  34.3    0.00     0
2016-05-24 02:00  13.4  15.9   151  66.2  35.4  31.6    0.00     0
2016-05-24 01:00  11.3  13.8   142  67.5  34.4  29.0    0.00     0
2016-05-24 00:00  10.5  13.2   142  68.7  32.5  25.7    0.00     0
2016-05-23 23:00  11.1  15.2   132  69.4  32.4  25.0    0.00     0
2016-05-23 22:00   7.8   8.7   121  68.9  34.1  27.2    0.00     0
2016-05-23 21:00   6.4   7.2   121  71.4  34.9  25.8    0.00     0
2016-05-23 20:00   3.7   4.1    45  64.0  52.9  66.8    0.00     0
2016-05-23 19:00   5.4   6.4     4  63.5  51.8  65.4    0.00     0
2016-05-23 18:00   8.9   9.9    32  64.4  50.0  59.2    0.00     0
2016-05-23 17:00   7.6   8.9    25  65.1  46.9  51.2    0.00     0
2016-05-23 16:00  10.7  11.1   342  67.1  43.9  42.6    0.00     0
2016-05-23 15:00   9.3  11.1   349  68.4  44.4  41.5    0.00     0
2016-05-23 14:00   7.6   9.5    16  70.0  40.9  34.3    0.00     0
2016-05-23 13:00   3.7   7.0    96  73.4  37.3  26.5    0.00     0
2016-05-23 12:00  11.9  13.0   118  72.9  30.0  20.1    0.00     0
2016-05-23 11:00   8.4  11.1   122  71.4  36.6  27.6    0.00     0
2016-05-23 10:00   8.4   9.9   161  68.7  38.7  32.9    0.00     0
2016-05-23 09:00   7.8   9.7   155  66.4  41.9  40.5    0.00     0
2016-05-23 08:00   8.6  10.3   128  62.8  44.2  50.3    0.00     0
2016-05-23 07:00   5.6   6.6   166  58.5  42.6  55.2    0.00     0
2016-05-23 06:00  11.1  14.6   140  58.6  41.3  52.1    0.00     0
2016-05-23 05:00   9.7  10.9   127  55.2  39.8  55.8    0.00     0
2016-05-23 04:00   6.2   6.8   127  55.8  39.5  53.9    0.00     0
2016-05-23 03:00   5.8   6.4   132  55.8  42.0  59.4    0.00     0
2016-05-23 02:00   7.4   7.8   110  54.3  44.5  69.2    0.00     0
2016-05-23 01:00   3.9   4.3   115  53.1  46.8  78.9    0.00     0
2016-05-23 00:00   1.0   1.4    92  52.3  47.5  83.5    0.00     0
2016-05-22 23:00   3.1   3.3    72  53.4  47.8  81.1    0.00     0
2016-05-22 22:00   4.1   4.7    60  53.4  48.3  82.6    0.00     0
2016-05-22 21:00   4.1   4.5   340  54.1  47.2  77.2    0.00     0
2016-05-22 20:00   3.3   3.7   355  54.9  45.9  71.5    0.00     0
2016-05-22 19:00   1.2   1.7   293  55.8  45.0  66.9    0.00     0
2016-05-22 18:00   2.3   2.9   291  56.8  44.0  61.8    0.00     0
2016-05-22 17:00   5.1   5.4   264  57.0  44.7  63.0    0.00     0
2016-05-22 16:00   2.5   2.7   347  57.6  45.8  64.5    0.00     0
2016-05-22 15:00   5.6   6.6   289  54.3  45.3  71.3    0.00     0
2016-05-22 14:00   6.8   7.6   301  54.1  46.0  73.8    0.00     0
2016-05-22 13:00   7.8   8.2   269  55.0  46.7  73.1    0.00     0
2016-05-22 12:00   7.0   7.4   264  58.1  45.1  61.5    0.00     0
2016-05-22 11:00   6.0   6.8   252  57.7  42.7  56.9    0.00     0
2016-05-22 10:00   4.9   5.1   238  57.4  44.4  61.5    0.00     0
2016-05-22 09:00   5.4   5.8   210  58.3  40.6  51.5    0.00     0
2016-05-22 08:00   3.9   4.1   254  58.1  40.3  51.2    0.00     0
2016-05-22 07:00   4.1   4.3   238  57.7  42.4  56.2    0.00     0
2016-05-22 06:00   5.8   6.6   203  55.0  41.5  59.9    0.00     0
2016-05-22 05:00   4.7   5.6   190  54.1  39.9  58.2    0.00     0
2016-05-22 04:00   4.1   4.5   175  52.7  39.1  59.4    0.00     0
2016-05-22 03:00   3.1   3.5   173  52.9  38.5  57.8    0.00     0
2016-05-22 02:00   4.1   4.5   174  52.7  43.8  71.3    0.00     0
2016-05-22 01:00   5.2   5.4   209  52.7  46.5  79.2    0.00     0
2016-05-22 00:00   5.8   6.2   206  52.2  45.4  77.4    0.00     0
2016-05-21 23:00   5.2   5.6   205  52.3  45.2  76.3    0.00     0
2016-05-21 22:00   5.8   6.8   235  54.3  44.5  69.0    0.00     0
2016-05-21 21:00   3.7   4.3   222  54.3  41.7  62.0    0.00     0
2016-05-21 20:00   1.0   1.2    64  55.9  33.6  42.4    0.00     0
2016-05-21 18:00   2.3   3.3   339  59.0  36.7  42.9    0.00     0
2016-05-21 17:00   3.7   4.1   238  53.8  41.3  62.2    0.00     0
2016-05-21 16:00   5.4   5.8   232  51.6  43.2  72.7    0.00     0
2016-05-21 15:00   4.5   5.6   251  51.4  42.1  70.0    0.00     0
2016-05-21 14:00   5.4   6.4   301  53.6  41.6  63.5    0.00     0
2016-05-21 13:00   7.8   8.4   256  51.8  43.2  72.3    0.00     0
2016-05-21 12:00   7.2   7.6   251  51.3  42.5  71.7    0.00     0
2016-05-21 11:00   4.5   5.2   283  52.2  44.0  73.5    0.00     0
2016-05-21 10:00   4.9   5.8   306  51.8  44.9  77.0    0.00     0
2016-05-21 09:00   2.5   2.9   320  53.6  45.5  73.7    0.00     0
2016-05-21 08:00   5.8   6.2   354  51.4  45.9  81.0    0.00     0
2016-05-21 07:00   6.2   8.6   337  52.0  46.0  79.8    0.00     0
2016-05-21 06:00   1.6   1.9    97  54.0  48.7  82.1    0.00     0
2016-05-21 05:00   6.4   6.6    31  52.7  50.2  91.0    0.00     0
2016-05-21 04:00   6.0   6.0    34  52.5  51.5  96.1    0.00     0
2016-05-21 03:00   6.8   6.8    21  52.3  50.2  92.3    0.00     0
2016-05-21 02:00   4.9   5.4   357  52.2  49.2  89.4    0.00     0
2016-05-21 01:00   6.0   6.4   356  51.4  47.8  87.1    0.00     0
2016-05-21 00:00   5.1   5.4    31  53.6  49.0  84.3    0.00     0
2016-05-20 23:00   6.8   7.0    24  53.8  48.2  81.3    0.00     0
2016-05-20 22:00   8.6   8.7    29  54.0  47.5  78.4    0.00     0
2016-05-20 21:00   9.7  10.5    20  53.2  46.1  76.5    0.00     0
2016-05-20 20:00   8.9   9.5    21  53.1  46.2  77.3    0.00     0
2016-05-20 19:00  11.1  12.2    29  53.4  46.1  75.9    0.00     0
2016-05-20 18:00   8.9   9.9    25  53.6  46.7  77.1    0.00     0
2016-05-20 17:00   9.7  10.3    30  52.9  47.9  83.0    0.00     0
2016-05-20 16:00  11.9  12.8    15  53.4  45.3  73.8    0.00     0
2016-05-20 15:00   6.6   7.6    39  54.9  47.0  74.6    0.00     0
2016-05-20 14:00   9.1   9.9    15  55.2  46.5  72.1    0.00     0
2016-05-20 13:00   9.1  10.1     3  61.7  42.0  47.9    0.00     0
2016-05-20 12:00   6.8   8.9    13  60.6  42.7  51.2    0.00     0
2016-05-20 11:00   7.6   9.1    81  63.9  38.7  39.0    0.00     0
2016-05-20 10:00   4.3   5.8    87  63.0  39.7  41.9    0.00     0
2016-05-20 09:00   7.4   8.9   104  61.3  39.9  44.8    0.00     0
2016-05-20 08:00   5.6   6.6    95  59.5  40.6  49.1    0.00     0
2016-05-20 07:00   7.2   8.4   109  57.0  38.9  50.4    0.00     0
2016-05-20 06:00   6.8   7.2   109  53.8  37.4  53.5    0.00     0
2016-05-20 05:00   7.6   8.9   102  54.3  36.3  50.2    0.00     0
2016-05-20 04:00   9.3  10.7   101  55.8  34.6  44.4    0.00     0
2016-05-20 03:00   9.1  10.5   103  55.6  34.0  43.8    0.00     0
2016-05-20 02:00   8.4   9.3    98  55.9  33.7  42.7    0.00     0
2016-05-20 01:00   7.6   8.7   100  55.6  34.8  45.2    0.00     0
2016-05-20 00:00   6.4   7.8    96  55.8  34.4  44.1    0.00     0
2016-05-19 23:00   5.8   7.0    61  56.5  34.1  42.4    0.00     0
2016-05-19 22:00   3.1   3.3    49  55.8  35.5  46.1    0.00     0
2016-05-19 21:00   8.0   8.2    38  54.5  47.4  76.7    0.00     0
2016-05-19 20:00   9.7  10.5    41  54.1  46.3  74.4    0.00     0
2016-05-19 19:00  11.3  12.1    34  54.5  42.0  62.4    0.00     0